Time;durP1;ratioP1;P1;durP2;ratioP2;P2;SDS_P1;SDS_P2;PMS_P1;PMS_P2;Temp;Humidity;BMP_temperature;BMP_pressure;BME280_temperature;BME280_humidity;BME280_pressure;Samples;Min_cycle;Max_cycle;Signal;HPM_P1;HPM_P2
2023/04/15 00:01:08;;;;;;;13.65;7.82;;;;;;;6.14;85.89;99955.97;4989780;28;20046;-80
2023/04/15 00:03:35;;;;;;;14.75;7.80;;;;;;;6.23;86.02;99955.91;4999346;28;20058;-80
2023/04/15 00:06:02;;;;;;;12.23;7.45;;;;;;;6.16;86.10;99954.81;4999080;28;20046;-84
2023/04/15 00:08:30;;;;;;;11.45;7.30;;;;;;;6.07;86.69;99960.09;4988564;28;20108;-80
2023/04/15 00:11:01;;;;;;;13.30;7.13;;;;;;;6.00;86.93;99965.03;4998674;28;20137;-81
2023/04/15 00:13:28;;;;;;;14.23;7.90;;;;;;;5.94;87.39;99963.81;4999122;28;20437;-82
2023/04/15 00:15:54;;;;;;;14.80;8.68;;;;;;;5.86;87.78;99958.50;4993094;28;20074;-79
2023/04/15 00:18:21;;;;;;;18.20;9.13;;;;;;;6.07;87.53;99970.47;4990346;28;20129;-78
2023/04/15 00:20:48;;;;;;;15.18;8.32;;;;;;;6.01;87.33;99958.88;4997368;28;20077;-79
2023/04/15 00:23:15;;;;;;;14.13;7.82;;;;;;;5.99;87.69;99963.41;4990393;28;20141;-80
2023/04/15 00:25:43;;;;;;;11.40;7.82;;;;;;;5.94;88.01;99965.59;4991630;28;20050;-80
2023/04/15 00:28:10;;;;;;;12.35;8.25;;;;;;;5.86;88.32;99955.91;4996920;28;20043;-79
2023/04/15 00:30:37;;;;;;;16.92;8.60;;;;;;;5.87;88.27;99960.13;4991772;28;20117;-79
2023/04/15 00:33:04;;;;;;;14.85;8.32;;;;;;;5.86;88.82;99962.88;4994179;28;20060;-79
2023/04/15 00:35:31;;;;;;;12.27;7.95;;;;;;;5.87;89.16;99962.72;4991646;28;20089;-81
2023/04/15 00:37:58;;;;;;;15.05;8.13;;;;;;;5.81;88.67;99960.69;4984125;28;20054;-79
2023/04/15 00:40:25;;;;;;;13.30;8.23;;;;;;;5.77;89.09;99964.53;4993859;28;20399;-79
2023/04/15 00:42:53;;;;;;;18.45;8.95;;;;;;;5.75;89.46;99963.84;4994504;28;20137;-79
2023/04/15 00:45:20;;;;;;;14.55;8.45;;;;;;;5.68;89.96;99971.38;4985756;28;20050;-80
2023/04/15 00:47:47;;;;;;;16.60;8.35;;;;;;;5.68;90.38;99971.38;4991289;28;20053;-79
2023/04/15 00:50:13;;;;;;;11.63;8.02;;;;;;;5.61;90.36;99970.34;4992681;28;20050;-79
2023/04/15 00:52:40;;;;;;;13.52;9.18;;;;;;;5.58;90.48;99965.41;4988885;28;20130;-79
2023/04/15 00:55:08;;;;;;;12.93;8.38;;;;;;;5.53;90.29;99957.22;4974460;28;20054;-79
2023/04/15 00:57:35;;;;;;;13.93;8.57;;;;;;;5.49;90.84;99961.06;4989648;28;20129;-79
2023/04/15 01:00:06;;;;;;;14.07;8.75;;;;;;;5.44;91.14;99972.81;5012586;23;20124;-79
2023/04/15 01:02:35;;;;;;;14.02;9.23;;;;;;;5.38;90.93;99963.81;5001714;28;20410;-79
2023/04/15 01:05:02;;;;;;;16.65;9.50;;;;;;;5.36;90.77;99968.31;4998068;28;20489;-79
2023/04/15 01:07:29;;;;;;;13.63;8.45;;;;;;;5.31;91.33;99970.50;5006978;28;20050;-79
2023/04/15 01:09:56;;;;;;;16.95;8.77;;;;;;;5.28;90.91;99965.59;5007079;28;20084;-80
2023/04/15 01:12:26;;;;;;;15.65;8.90;;;;;;;5.17;91.20;99957.97;5003976;28;20061;-80
2023/04/15 01:14:53;;;;;;;15.45;8.50;;;;;;;5.16;91.26;99969.31;4994187;28;20524;-80
2023/04/15 01:17:21;;;;;;;14.43;7.97;;;;;;;5.17;91.02;99957.97;5002290;28;20060;-80
2023/04/15 01:19:48;;;;;;;13.00;9.07;;;;;;;5.21;90.73;99964.50;5016334;28;20046;-80
2023/04/15 01:22:15;;;;;;;13.02;8.93;;;;;;;5.25;91.08;99951.13;5008502;28;20045;-81
2023/04/15 01:24:49;;;;;;;13.40;8.93;;;;;;;5.26;90.66;99957.13;4998172;28;20133;-80
2023/04/15 01:27:17;;;;;;;14.30;9.18;;;;;;;5.24;91.15;99957.25;4986665;28;20132;-79
2023/04/15 01:29:43;;;;;;;13.77;8.40;;;;;;;5.20;90.85;99962.88;4994763;28;20133;-80
2023/04/15 01:32:10;;;;;;;14.38;9.38;;;;;;;5.09;90.47;99963.84;4987378;28;20137;-79
2023/04/15 01:34:37;;;;;;;16.80;8.93;;;;;;;5.06;90.38;99964.13;4995809;28;20614;-80
2023/04/15 01:37:04;;;;;;;12.88;8.80;;;;;;;5.00;90.38;99964.66;4988333;28;20141;-79
2023/04/15 01:39:30;;;;;;;12.77;8.82;;;;;;;4.97;91.17;99963.16;4996598;28;20050;-80
2023/04/15 01:41:57;;;;;;;16.08;9.02;;;;;;;4.96;91.17;99969.28;4995357;28;20050;-82
2023/04/15 01:44:25;;;;;;;11.10;8.25;;;;;;;4.88;91.43;99960.56;4990731;28;20063;-80
2023/04/15 01:46:52;;;;;;;9.82;7.72;;;;;;;4.88;91.73;99952.78;4995752;28;20086;-81
2023/04/15 01:49:18;;;;;;;17.50;8.75;;;;;;;4.85;91.81;99951.28;4995252;28;20050;-80
2023/04/15 01:51:45;;;;;;;13.93;8.18;;;;;;;4.82;92.17;99951.53;4995291;28;20081;-81
2023/04/15 01:54:12;;;;;;;13.27;8.40;;;;;;;4.77;91.56;99948.53;4995765;28;20217;-80
2023/04/15 01:56:38;;;;;;;13.27;8.57;;;;;;;4.73;91.50;99949.75;4988210;28;20197;-80
2023/04/15 01:59:05;;;;;;;13.07;8.23;;;;;;;4.65;91.58;99955.66;4996148;28;20061;-80
2023/04/15 02:01:33;;;;;;;12.82;8.02;;;;;;;4.60;91.96;99957.81;5004528;28;20187;-79
2023/04/15 02:04:00;;;;;;;17.95;8.35;;;;;;;4.60;92.08;99957.00;5008222;28;20054;-80
2023/04/15 02:06:28;;;;;;;12.77;8.52;;;;;;;4.61;91.86;99963.81;5001809;28;20050;-79
2023/04/15 02:08:54;;;;;;;11.02;8.10;;;;;;;4.65;92.20;99965.19;4989707;28;20507;-80
2023/04/15 02:11:21;;;;;;;12.65;8.10;;;;;;;4.61;92.11;99962.03;5005829;28;20133;-78
2023/04/15 02:13:48;;;;;;;14.25;8.65;;;;;;;4.64;92.62;99966.13;5013148;28;20052;-79
2023/04/15 02:16:19;;;;;;;12.50;8.63;;;;;;;4.51;92.92;99958.63;4997049;28;20129;-79
2023/04/15 02:18:47;;;;;;;17.23;9.07;;;;;;;4.52;92.91;99974.97;4996739;28;20137;-79
2023/04/15 02:21:13;;;;;;;12.48;8.90;;;;;;;4.49;93.96;99967.47;4995314;28;20065;-79
2023/04/15 02:23:40;;;;;;;14.07;8.50;;;;;;;4.50;93.59;99976.88;4996152;28;20058;-79
2023/04/15 02:26:07;;;;;;;13.20;9.20;;;;;;;4.32;93.61;99982.69;4986774;28;20506;-81
2023/04/15 02:28:34;;;;;;;14.30;8.95;;;;;;;4.30;94.45;99982.00;4984604;28;20119;-78
2023/04/15 02:31:01;;;;;;;15.55;8.50;;;;;;;4.30;94.60;99981.19;4992923;28;20131;-78
2023/04/15 02:33:27;;;;;;;15.07;8.80;;;;;;;4.28;94.32;99970.13;4994911;28;20062;-80
2023/04/15 02:35:55;;;;;;;13.90;7.93;;;;;;;4.26;94.57;99985.78;4997497;28;20477;-81
2023/04/15 02:38:23;;;;;;;13.93;8.73;;;;;;;4.20;94.36;99980.34;4996763;28;20129;-80
2023/04/15 02:40:50;;;;;;;14.48;7.85;;;;;;;4.24;94.54;99985.13;5013813;28;20053;-80
2023/04/15 02:43:17;;;;;;;12.93;7.97;;;;;;;4.26;94.47;99983.22;5013384;28;20058;-80
2023/04/15 02:45:44;;;;;;;13.93;8.18;;;;;;;4.24;94.51;99981.72;5010194;28;20061;-80
2023/04/15 02:48:11;;;;;;;14.07;9.40;;;;;;;4.21;94.80;99988.00;4996594;28;20086;-81
2023/04/15 02:50:38;;;;;;;12.38;8.60;;;;;;;4.19;94.32;99989.88;4996306;28;20125;-81
2023/04/15 02:53:06;;;;;;;11.80;8.25;;;;;;;4.10;94.82;99977.72;4996432;28;20051;-80
2023/04/15 02:55:33;;;;;;;11.07;8.15;;;;;;;4.15;95.04;99988.50;4989021;28;20085;-80
2023/04/15 02:58:00;;;;;;;15.30;7.97;;;;;;;4.09;95.32;99994.19;4997789;28;20137;-81
2023/04/15 03:00:27;;;;;;;13.80;8.20;;;;;;;4.07;95.26;99996.09;5000601;28;20205;-81
2023/04/15 03:02:58;;;;;;;11.05;8.05;;;;;;;4.01;95.07;99991.44;4997494;28;20099;-80
2023/04/15 03:05:25;;;;;;;16.67;8.63;;;;;;;3.98;95.43;99989.09;5016517;28;20054;-80
2023/04/15 03:07:52;;;;;;;14.18;8.73;;;;;;;3.98;95.97;100000.28;5006188;28;20077;-81
2023/04/15 03:10:20;;;;;;;12.95;8.13;;;;;;;3.96;96.11;100002.19;5002831;28;20043;-80
2023/04/15 03:12:47;;;;;;;15.25;8.05;;;;;;;3.93;95.48;100004.19;5002418;28;20473;-80
2023/04/15 03:15:14;;;;;;;15.40;7.65;;;;;;;3.93;95.96;100009.38;5005353;28;20088;-80
2023/04/15 03:17:41;;;;;;;13.00;7.93;;;;;;;3.87;95.86;100005.53;4998363;28;20082;-80
2023/04/15 03:20:08;;;;;;;16.85;8.75;;;;;;;3.80;96.18;100008.75;4990580;28;20060;-80
2023/04/15 03:22:35;;;;;;;13.32;8.45;;;;;;;3.71;96.43;100001.78;5008328;28;20143;-80
2023/04/15 03:25:01;;;;;;;14.45;8.60;;;;;;;3.80;96.29;100006.16;5023861;28;20057;-80
2023/04/15 03:27:29;;;;;;;12.68;8.07;;;;;;;3.78;96.33;100008.09;5023442;28;20056;-80
2023/04/15 03:29:56;;;;;;;11.43;7.85;;;;;;;3.70;96.41;100013.91;5004170;28;20047;-81
2023/04/15 03:32:23;;;;;;;15.55;8.32;;;;;;;3.69;96.67;100026.97;4998949;28;20054;-81
2023/04/15 03:34:49;;;;;;;14.15;8.25;;;;;;;3.64;97.19;100019.56;4990055;28;20073;-79
2023/04/15 03:37:16;;;;;;;15.30;8.73;;;;;;;3.64;97.85;100022.16;4995635;28;20074;-81
2023/04/15 03:39:43;;;;;;;15.43;8.82;;;;;;;3.67;97.60;100024.50;5006686;28;20073;-80
2023/04/15 03:42:09;;;;;;;15.88;8.45;;;;;;;3.66;98.07;100017.69;5017981;28;20088;-80
2023/04/15 03:44:37;;;;;;;14.82;9.05;;;;;;;3.61;97.91;100031.00;5009471;28;20054;-79
2023/04/15 03:47:04;;;;;;;13.80;8.93;;;;;;;3.58;98.25;100026.06;4999010;28;20137;-77
2023/04/15 03:49:31;;;;;;;17.90;9.27;;;;;;;3.56;99.11;100027.97;4996510;28;20145;-79
2023/04/15 03:51:58;;;;;;;13.98;9.30;;;;;;;3.55;99.51;100041.84;4996523;28;20725;-78
2023/04/15 03:54:25;;;;;;;18.85;9.80;;;;;;;3.51;99.54;100050.81;4993565;28;20069;-79
2023/04/15 03:56:51;;;;;;;19.50;10.32;;;;;;;3.50;99.54;100049.16;4997020;28;20116;-79
2023/04/15 03:59:18;;;;;;;13.65;9.45;;;;;;;3.46;100.00;100052.13;4996401;28;20108;-78
2023/04/15 04:01:46;;;;;;;14.40;9.45;;;;;;;3.43;100.00;100050.59;4996426;28;20137;-78
2023/04/15 04:04:13;;;;;;;18.73;10.25;;;;;;;3.45;100.00;100050.47;4996119;28;20074;-79
2023/04/15 04:06:39;;;;;;;15.82;10.63;;;;;;;3.48;100.00;100056.22;4997435;28;20073;-79
2023/04/15 04:09:06;;;;;;;15.57;9.90;;;;;;;3.48;100.00;100057.97;4992823;28;20077;-80
2023/04/15 04:11:33;;;;;;;19.27;10.30;;;;;;;3.45;100.00;100053.06;4997344;28;20085;-79
2023/04/15 04:13:59;;;;;;;18.55;9.90;;;;;;;3.44;100.00;100048.84;4997903;28;20082;-78
2023/04/15 04:16:26;;;;;;;17.10;9.93;;;;;;;3.41;100.00;100049.91;4997392;28;20130;-80
2023/04/15 04:18:56;;;;;;;17.90;10.65;;;;;;;3.46;100.00;100040.00;4997904;28;20106;-79
2023/04/15 04:21:23;;;;;;;14.50;10.00;;;;;;;3.47;100.00;100041.66;4998057;28;20072;-79
2023/04/15 04:23:50;;;;;;;16.83;10.13;;;;;;;3.46;100.00;100046.94;4998264;28;20521;-79
2023/04/15 04:26:24;;;;;;;16.42;10.27;;;;;;;3.45;100.00;100046.13;4999536;28;20058;-80
2023/04/15 04:28:51;;;;;;;16.88;9.65;;;;;;;3.45;100.00;100059.06;4999539;28;20050;-81
2023/04/15 04:31:18;;;;;;;15.38;9.98;;;;;;;3.43;100.00;100054.94;4995037;28;20133;-79
2023/04/15 04:33:45;;;;;;;14.48;9.60;;;;;;;3.36;100.00;100057.22;4996984;28;20075;-79
2023/04/15 04:36:13;;;;;;;18.48;10.23;;;;;;;3.33;100.00;100062.63;4996506;28;20054;-80
2023/04/15 04:38:40;;;;;;;19.00;10.48;;;;;;;3.41;100.00;100064.59;4996602;28;20050;-79
2023/04/15 04:41:06;;;;;;;16.85;10.50;;;;;;;3.39;100.00;100077.66;4988195;28;20050;-80
2023/04/15 04:43:33;;;;;;;16.42;10.25;;;;;;;3.45;100.00;100078.94;4997101;28;20050;-80
2023/04/15 04:46:00;;;;;;;14.75;10.30;;;;;;;3.37;100.00;100064.03;4996600;28;20129;-79
2023/04/15 04:48:26;;;;;;;16.08;9.77;;;;;;;3.41;100.00;100067.19;4997460;28;20050;-80
2023/04/15 04:50:53;;;;;;;18.58;9.77;;;;;;;3.40;100.00;100074.13;4988070;28;20065;-80
2023/04/15 04:53:21;;;;;;;16.75;9.40;;;;;;;3.38;100.00;100081.19;4996301;28;20049;-79
2023/04/15 04:55:48;;;;;;;14.68;8.70;;;;;;;3.40;100.00;100070.72;4996522;28;20065;-80
2023/04/15 04:58:14;;;;;;;15.25;9.10;;;;;;;3.40;100.00;100071.53;4996741;28;20673;-80
2023/04/15 05:00:44;;;;;;;17.50;9.35;;;;;;;3.41;100.00;100073.19;4997334;28;20076;-79
2023/04/15 05:03:10;;;;;;;12.45;8.75;;;;;;;3.45;100.00;100089.28;4991578;28;20046;-79
2023/04/15 05:05:38;;;;;;;14.18;8.75;;;;;;;3.41;100.00;100086.09;4998012;28;20137;-80
2023/04/15 05:08:05;;;;;;;12.45;8.25;;;;;;;3.41;100.00;100091.28;4996541;28;20061;-79
2023/04/15 05:10:33;;;;;;;14.55;8.85;;;;;;;3.47;100.00;100089.97;4995860;28;20121;-79
2023/04/15 05:13:00;;;;;;;14.32;8.90;;;;;;;3.42;100.00;100092.91;4996927;28;20073;-79
2023/04/15 05:15:27;;;;;;;11.32;8.48;;;;;;;3.47;100.00;100095.97;4995914;28;20516;-80
2023/04/15 05:17:53;;;;;;;15.82;9.57;;;;;;;3.50;100.00;100098.31;4997666;28;20133;-80
2023/04/15 05:20:20;;;;;;;13.93;9.40;;;;;;;3.55;100.00;100093.59;4998857;28;20057;-79
2023/04/15 05:22:47;;;;;;;14.77;9.40;;;;;;;3.62;100.00;100105.09;5001105;28;20077;-79
2023/04/15 05:25:13;;;;;;;15.20;9.68;;;;;;;3.67;100.00;100097.78;5001614;28;20109;-80
2023/04/15 05:27:41;;;;;;;16.38;9.57;;;;;;;3.80;100.00;100101.91;5002913;28;20089;-80
2023/04/15 05:30:09;;;;;;;15.00;9.40;;;;;;;3.88;100.00;100112.47;4994988;28;20534;-81
2023/04/15 05:32:35;;;;;;;15.27;9.85;;;;;;;3.91;100.00;100110.44;5000116;28;20054;-80
2023/04/15 05:35:02;;;;;;;13.23;8.95;;;;;;;3.96;100.00;100118.66;4997265;28;20064;-81
2023/04/15 05:37:29;;;;;;;17.98;10.90;;;;;;;4.10;100.00;100125.31;4996604;28;20478;-79
2023/04/15 05:39:55;;;;;;;18.67;11.73;;;;;;;4.24;100.00;100127.56;5000311;28;20054;-80
2023/04/15 05:42:22;;;;;;;22.05;11.98;;;;;;;4.45;100.00;100129.31;4999942;28;20114;-80
2023/04/15 05:44:50;;;;;;;16.20;11.43;;;;;;;4.71;99.81;100125.34;4999164;28;20133;-81
2023/04/15 05:47:17;;;;;;;16.52;11.00;;;;;;;5.00;99.28;100131.44;5000532;28;20054;-80
2023/04/15 05:49:44;;;;;;;18.60;11.35;;;;;;;5.32;98.24;100125.19;5001070;28;20042;-80
2023/04/15 05:52:10;;;;;;;18.35;11.43;;;;;;;5.57;96.65;100135.06;5002252;28;20101;-79
2023/04/15 05:54:37;;;;;;;15.40;10.40;;;;;;;6.07;95.43;100121.13;5001260;28;20429;-80
2023/04/15 05:57:04;;;;;;;14.07;9.80;;;;;;;6.42;93.17;100123.91;4996068;28;20047;-81
2023/04/15 05:59:30;;;;;;;13.88;8.88;;;;;;;7.29;90.90;100126.06;4987034;28;20049;-80
2023/04/15 06:01:58;;;;;;;14.35;8.05;;;;;;;8.28;87.21;100114.50;5002456;28;20057;-80
2023/04/15 06:04:25;;;;;;;12.20;7.72;;;;;;;8.96;83.60;100104.13;4992406;28;20058;-80
2023/04/15 06:06:52;;;;;;;13.65;7.80;;;;;;;9.75;80.05;100099.31;4987799;28;20050;-80
2023/04/15 06:09:19;;;;;;;15.30;7.78;;;;;;;10.16;77.58;100103.53;4996385;28;20490;-80
2023/04/15 06:11:45;;;;;;;16.33;8.07;;;;;;;10.80;75.28;100109.59;4996097;28;20114;-81
2023/04/15 06:14:12;;;;;;;16.13;7.53;;;;;;;10.89;73.78;100105.94;4996868;28;20142;-80
2023/04/15 06:16:38;;;;;;;12.95;7.30;;;;;;;10.73;72.67;100110.44;4996040;28;20141;-80
2023/04/15 06:19:06;;;;;;;13.23;7.68;;;;;;;11.04;72.25;100113.06;4995484;28;20443;-81
2023/04/15 06:21:33;;;;;;;10.63;7.60;;;;;;;10.75;72.04;100106.66;4994539;28;20109;-81
2023/04/15 06:24:01;;;;;;;11.25;7.75;;;;;;;10.79;72.59;100126.28;4994125;28;20050;-80
2023/04/15 06:26:28;;;;;;;12.57;8.07;;;;;;;10.59;73.35;100123.22;4995552;28;20042;-80
2023/04/15 06:28:54;;;;;;;14.48;9.30;;;;;;;9.74;73.80;100118.59;4993306;28;20054;-79
2023/04/15 06:31:21;;;;;;;10.43;8.88;;;;;;;9.29;75.43;100135.50;4998179;28;20066;-80
2023/04/15 06:33:47;;;;;;;13.55;8.98;;;;;;;9.27;76.05;100143.50;5001640;28;20085;-80
2023/04/15 06:36:15;;;;;;;11.95;8.88;;;;;;;9.29;76.62;100144.16;4995093;28;20088;-80
2023/04/15 06:38:42;;;;;;;16.52;10.85;;;;;;;9.16;77.11;100148.19;4989754;28;20046;-81
2023/04/15 06:41:09;;;;;;;14.45;10.40;;;;;;;9.26;77.33;100151.50;4992599;28;20102;-81
2023/04/15 06:43:36;;;;;;;14.68;9.73;;;;;;;9.36;77.01;100148.75;4994215;28;20047;-81
2023/04/15 06:46:02;;;;;;;17.45;10.10;;;;;;;9.10;77.15;100151.44;4997502;28;20118;-82
2023/04/15 06:48:29;;;;;;;16.00;10.45;;;;;;;9.04;77.60;100152.06;4990116;28;20112;-81
2023/04/15 06:50:57;;;;;;;18.38;10.90;;;;;;;9.19;77.91;100163.53;5007381;28;20077;-79
2023/04/15 06:53:25;;;;;;;16.40;9.95;;;;;;;9.31;78.08;100164.91;5000591;28;20077;-79
2023/04/15 06:55:52;;;;;;;13.00;10.18;;;;;;;9.64;78.00;100173.59;4993457;28;20046;-79
2023/04/15 06:58:18;;;;;;;13.10;9.70;;;;;;;9.80;77.12;100176.25;5004957;28;20058;-80
2023/04/15 07:00:45;;;;;;;15.70;10.65;;;;;;;9.57;76.97;100155.16;5023898;23;20101;-77
2023/04/15 07:03:12;;;;;;;16.88;11.35;;;;;;;9.51;77.22;100171.44;5028571;28;20448;-79
2023/04/15 07:05:39;;;;;;;14.45;10.65;;;;;;;9.78;77.57;100180.81;5021334;28;20096;-78
2023/04/15 07:08:06;;;;;;;16.30;10.90;;;;;;;9.90;77.24;100181.31;5037882;28;20164;-79
2023/04/15 07:10:34;;;;;;;16.50;10.70;;;;;;;9.85;77.09;100183.59;5029959;28;20045;-79
2023/04/15 07:13:01;;;;;;;15.32;10.68;;;;;;;9.79;77.90;100194.69;5038052;28;20108;-80
2023/04/15 07:15:28;;;;;;;17.52;11.15;;;;;;;10.11;77.84;100189.47;5032529;28;20045;-80
2023/04/15 07:17:54;;;;;;;19.50;11.73;;;;;;;10.32;77.19;100199.47;5030572;28;20125;-78
2023/04/15 07:20:21;;;;;;;17.45;11.45;;;;;;;10.42;77.08;100205.34;5024273;28;20072;-79
2023/04/15 07:22:48;;;;;;;19.75;11.43;;;;;;;10.53;76.96;100206.78;5030741;28;20111;-79
2023/04/15 07:25:14;;;;;;;17.65;12.07;;;;;;;10.82;76.01;100207.09;5026856;28;20140;-79
2023/04/15 07:27:42;;;;;;;18.90;12.25;;;;;;;10.71;75.34;100202.19;5036693;28;20053;-78
2023/04/15 07:30:11;;;;;;;16.30;11.43;;;;;;;10.84;76.13;100209.53;5033751;28;20132;-79
2023/04/15 07:32:37;;;;;;;16.85;11.57;;;;;;;10.83;76.70;100211.34;5028042;28;20045;-80
2023/04/15 07:35:05;;;;;;;14.88;11.27;;;;;;;10.94;76.27;100223.22;5034083;28;20132;-80
2023/04/15 07:37:32;;;;;;;16.33;12.10;;;;;;;10.86;75.86;100208.38;5035976;28;20128;-79
2023/04/15 07:39:59;;;;;;;20.35;12.23;;;;;;;11.13;75.74;100206.31;5030857;28;20520;-79
2023/04/15 07:42:25;;;;;;;17.23;12.95;;;;;;;11.19;75.06;100216.13;5030160;28;20571;-78
2023/04/15 07:44:53;;;;;;;16.35;12.55;;;;;;;11.69;74.25;100222.75;5036346;28;20049;-80
2023/04/15 07:47:20;;;;;;;18.05;12.88;;;;;;;12.13;73.82;100226.41;5029905;28;20053;-78
2023/04/15 07:49:47;;;;;;;17.30;12.55;;;;;;;12.96;72.48;100223.63;5026480;28;20072;-76
2023/04/15 07:52:13;;;;;;;17.15;12.52;;;;;;;12.98;70.96;100225.25;5023700;28;20053;-76
2023/04/15 07:54:40;;;;;;;15.60;11.60;;;;;;;13.38;70.08;100231.88;5036533;28;20136;-78
2023/04/15 07:57:07;;;;;;;13.02;11.50;;;;;;;13.52;69.76;100231.84;5034381;28;20064;-79
2023/04/15 07:59:34;;;;;;;17.50;12.40;;;;;;;13.70;69.96;100233.25;5027533;28;20406;-76
2023/04/15 08:02:02;;;;;;;19.80;12.40;;;;;;;13.82;69.32;100231.75;5026444;28;20054;-76
2023/04/15 08:04:29;;;;;;;18.30;12.88;;;;;;;13.90;68.76;100231.63;5035355;28;20056;-78
2023/04/15 08:06:56;;;;;;;15.82;12.82;;;;;;;13.65;69.20;100233.00;5032772;28;20144;-78
2023/04/15 08:09:23;;;;;;;18.58;13.23;;;;;;;13.38;69.97;100232.69;5022772;28;20621;-79
2023/04/15 08:11:50;;;;;;;15.85;13.15;;;;;;;13.38;69.80;100245.00;5024242;28;20068;-78
2023/04/15 08:14:16;;;;;;;16.48;13.25;;;;;;;13.40;70.05;100241.19;5034511;28;20505;-78
2023/04/15 08:16:43;;;;;;;20.35;12.40;;;;;;;13.51;70.27;100259.13;5034067;28;20152;-78
2023/04/15 08:19:11;;;;;;;13.15;10.38;;;;;;;13.75;68.80;100249.28;5034485;28;20081;-79
2023/04/15 08:21:38;;;;;;;7.97;6.88;;;;;;;12.84;67.18;100234.75;5034304;28;20128;-79
2023/04/15 08:24:05;;;;;;;12.00;6.47;;;;;;;12.75;66.73;100234.03;5032108;28;20066;-79
2023/04/15 08:26:32;;;;;;;10.07;6.45;;;;;;;12.35;66.13;100237.03;5030398;28;20052;-78
2023/04/15 08:28:59;;;;;;;11.98;6.32;;;;;;;12.07;66.59;100242.00;5030691;28;20516;-79
2023/04/15 08:31:27;;;;;;;11.80;7.38;;;;;;;11.84;67.15;100248.03;5035458;28;20055;-78
2023/04/15 08:33:55;;;;;;;9.27;6.53;;;;;;;11.95;67.28;100252.09;5027142;28;20528;-78
2023/04/15 08:36:23;;;;;;;11.73;6.78;;;;;;;12.24;67.63;100257.47;5034184;28;20045;-79
2023/04/15 08:38:50;;;;;;;11.07;7.10;;;;;;;12.34;67.37;100253.75;5035059;28;20076;-79
2023/04/15 08:41:22;;;;;;;8.00;5.68;;;;;;;12.74;66.75;100263.91;5034159;28;20152;-78
2023/04/15 08:43:52;;;;;;;12.73;5.72;;;;;;;12.79;65.48;100261.53;5023721;28;20056;-77
2023/04/15 08:46:20;;;;;;;6.53;5.38;;;;;;;12.66;65.12;100256.13;5036747;28;20048;-80
2023/04/15 08:48:48;;;;;;;8.70;5.25;;;;;;;12.93;64.31;100255.50;5038693;28;20519;-79
2023/04/15 08:51:15;;;;;;;6.45;4.60;;;;;;;12.65;63.94;100261.53;5033546;28;20056;-78
2023/04/15 08:53:45;;;;;;;7.40;4.80;;;;;;;12.95;63.21;100258.75;5027360;28;20466;-79
2023/04/15 08:56:14;;;;;;;5.95;3.80;;;;;;;12.58;62.63;100250.94;5028956;28;20128;-79
2023/04/15 08:58:41;;;;;;;6.53;4.07;;;;;;;12.61;62.41;100263.72;5028503;28;20054;-76
2023/04/15 09:01:08;;;;;;;5.28;4.20;;;;;;;12.41;62.80;100276.50;5035001;28;20413;-78
2023/04/15 09:03:35;;;;;;;7.95;4.63;;;;;;;12.35;63.30;100271.13;5035047;28;20109;-79
2023/04/15 09:06:04;;;;;;;8.48;5.30;;;;;;;12.33;64.13;100273.94;5035042;28;20485;-78
2023/04/15 09:08:31;;;;;;;7.18;4.90;;;;;;;12.71;63.68;100266.91;5034621;28;20053;-79
2023/04/15 09:10:59;;;;;;;7.03;4.55;;;;;;;12.75;64.07;100272.63;5026513;28;20052;-78
2023/04/15 09:13:25;;;;;;;6.55;4.90;;;;;;;12.69;63.89;100284.63;5037250;28;20107;-78
2023/04/15 09:15:53;;;;;;;8.02;4.93;;;;;;;12.70;63.27;100274.97;5038386;28;20620;-79
2023/04/15 09:18:28;;;;;;;8.07;5.10;;;;;;;13.29;62.38;100273.19;5040117;28;20534;-80
2023/04/15 09:20:55;;;;;;;6.65;4.70;;;;;;;13.04;62.65;100280.50;5038125;28;20053;-77
2023/04/15 09:23:21;;;;;;;7.00;5.13;;;;;;;13.02;63.31;100284.31;5031912;28;20085;-78
2023/04/15 09:25:49;;;;;;;6.93;5.70;;;;;;;12.61;64.23;100297.84;5035306;28;20073;-79
2023/04/15 09:28:24;;;;;;;7.63;5.38;;;;;;;12.75;63.90;100298.88;5036834;28;20053;-79
2023/04/15 09:30:52;;;;;;;8.90;4.93;;;;;;;12.75;63.94;100312.81;5035348;28;20060;-79
2023/04/15 09:33:19;;;;;;;7.25;5.15;;;;;;;12.81;63.09;100304.19;5031211;28;20087;-79
2023/04/15 09:35:58;;;;;;;9.00;5.90;;;;;;;12.95;63.08;100313.91;5039194;28;20105;-80
2023/04/15 09:38:25;;;;;;;7.68;5.80;;;;;;;12.96;63.54;100312.91;5032951;28;20509;-79
2023/04/15 09:40:51;;;;;;;8.80;6.10;;;;;;;12.91;63.99;100320.50;5042251;28;20084;-80
2023/04/15 09:43:19;;;;;;;7.63;5.35;;;;;;;12.63;64.55;100332.59;5034137;28;20536;-82
2023/04/15 09:45:50;;;;;;;6.65;5.53;;;;;;;12.71;64.87;100323.84;5040380;28;20041;-83
2023/04/15 09:48:20;;;;;;;10.15;6.38;;;;;;;12.55;65.24;100335.28;5035644;28;20053;-82
2023/04/15 09:50:48;;;;;;;7.75;5.70;;;;;;;12.89;64.46;100333.00;5036715;28;20132;-83
2023/04/15 09:53:19;;;;;;;7.82;5.93;;;;;;;12.48;64.29;100323.84;5035351;28;20049;-80
2023/04/15 09:55:49;;;;;;;8.45;6.80;;;;;;;12.33;65.50;100333.47;5037547;28;20534;-80
2023/04/15 09:58:21;;;;;;;8.60;6.40;;;;;;;12.44;65.86;100343.56;5031354;28;20081;-80
2023/04/15 10:00:49;;;;;;;8.17;6.70;;;;;;;13.06;65.82;100346.00;5035261;28;20057;-80
2023/04/15 10:03:19;;;;;;;8.05;6.70;;;;;;;13.41;65.07;100341.88;5037858;28;20048;-80
2023/04/15 10:05:48;;;;;;;10.82;7.65;;;;;;;13.51;64.80;100340.63;5025548;28;20109;-80
2023/04/15 10:08:16;;;;;;;8.70;6.65;;;;;;;13.38;64.14;100340.44;5039899;28;20099;-79
2023/04/15 10:10:42;;;;;;;8.48;6.22;;;;;;;13.28;64.59;100350.38;5035582;28;20137;-80
2023/04/15 10:13:10;;;;;;;6.82;5.65;;;;;;;13.29;63.69;100339.69;5023910;28;20053;-80
2023/04/15 10:15:38;;;;;;;7.78;6.20;;;;;;;13.66;63.30;100339.78;5040732;28;20072;-81
2023/04/15 10:18:07;;;;;;;8.25;6.25;;;;;;;13.72;62.44;100336.41;5041001;28;20049;-79
2023/04/15 10:20:35;;;;;;;7.82;6.35;;;;;;;13.27;63.47;100351.38;5032221;28;20072;-80
2023/04/15 10:23:02;;;;;;;9.18;7.40;;;;;;;13.19;63.84;100352.31;5032201;28;20049;-81
2023/04/15 10:25:30;;;;;;;9.95;7.43;;;;;;;13.45;64.56;100343.16;5033432;28;20084;-82
2023/04/15 10:27:58;;;;;;;8.55;6.68;;;;;;;14.12;63.41;100353.50;5036795;28;20060;-80
2023/04/15 10:30:25;;;;;;;6.85;5.82;;;;;;;13.68;63.24;100348.31;5038193;28;20057;-82
2023/04/15 10:32:53;;;;;;;6.80;5.00;;;;;;;13.47;63.85;100351.66;5040851;28;20071;-80
2023/04/15 10:35:21;;;;;;;5.88;4.75;;;;;;;13.97;63.59;100353.53;5041064;28;20132;-82
2023/04/15 10:37:48;;;;;;;11.38;6.43;;;;;;;13.49;63.96;100355.75;5036714;28;20045;-81
2023/04/15 10:40:26;;;;;;;9.48;5.35;;;;;;;13.65;64.28;100372.34;5035972;28;20081;-79
2023/04/15 10:42:57;;;;;;;8.93;5.30;;;;;;;13.28;64.79;100374.84;5033244;28;20053;-80
2023/04/15 10:45:30;;;;;;;6.05;4.57;;;;;;;13.46;64.75;100374.50;5041556;28;20073;-81
2023/04/15 10:48:01;;;;;;;5.78;4.60;;;;;;;13.61;63.84;100359.56;5034543;28;20045;-80
2023/04/15 10:50:28;;;;;;;6.57;5.07;;;;;;;13.82;63.97;100368.50;5042061;28;20046;-81
2023/04/15 10:52:57;;;;;;;8.27;5.00;;;;;;;13.71;63.49;100358.44;5033941;28;20070;-81
2023/04/15 10:55:25;;;;;;;6.68;5.00;;;;;;;13.75;63.61;100367.59;5034352;28;20474;-81
2023/04/15 10:57:53;;;;;;;7.28;4.88;;;;;;;13.71;63.34;100363.69;5036519;28;20049;-81
2023/04/15 11:00:25;;;;;;;7.60;5.32;;;;;;;13.62;63.30;100365.63;5025814;28;20403;-81
2023/04/15 11:02:54;;;;;;;7.30;5.97;;;;;;;13.27;63.35;100357.44;4998760;28;1210405;-80
2023/04/15 11:05:23;;;;;;;8.05;5.53;;;;;;;13.04;64.03;100376.88;5041039;28;20049;-82
2023/04/15 11:07:53;;;;;;;9.02;5.78;;;;;;;13.48;63.76;100372.53;5039677;28;20128;-79
2023/04/15 11:10:51;;;;;;;8.85;5.57;;;;;;;13.32;63.55;100367.44;5040478;28;20080;-80
2023/04/15 11:13:30;;;;;;;8.05;5.30;;;;;;;13.51;64.94;100387.13;5035589;28;20040;-81
2023/04/15 11:16:03;;;;;;;6.43;5.43;;;;;;;13.56;65.29;100382.13;5038829;28;20045;-81
2023/04/15 11:18:36;;;;;;;7.22;6.47;;;;;;;13.44;64.19;100373.88;5027567;28;20054;-78
2023/04/15 11:21:22;;;;;;;8.57;7.57;;;;;;;13.45;64.55;100386.03;5009724;28;20056;-80
2023/04/15 11:23:51;;;;;;;8.07;7.05;;;;;;;13.38;65.35;100382.47;5016363;28;20049;-79
2023/04/15 11:26:18;;;;;;;7.90;7.10;;;;;;;13.46;65.39;100397.34;5015424;28;20140;-79